sensor_id;sensor_type;location;lat;lon;timestamp;temperature;humidity
30148;DHT22;16960;49.404;8.248;2024-02-14T00:00:02;21.40;37.50
30148;DHT22;16960;49.404;8.248;2024-02-14T00:02:30;21.40;37.50
30148;DHT22;16960;49.404;8.248;2024-02-14T00:04:56;21.30;37.40
30148;DHT22;16960;49.404;8.248;2024-02-14T00:07:25;21.40;37.40
30148;DHT22;16960;49.404;8.248;2024-02-14T00:09:52;21.30;37.50
30148;DHT22;16960;49.404;8.248;2024-02-14T00:12:20;21.30;37.50
30148;DHT22;16960;49.404;8.248;2024-02-14T00:14:46;21.30;37.50
30148;DHT22;16960;49.404;8.248;2024-02-14T00:17:14;21.30;37.50
30148;DHT22;16960;49.404;8.248;2024-02-14T00:19:41;21.30;37.60
30148;DHT22;16960;49.404;8.248;2024-02-14T00:22:08;21.20;37.50
30148;DHT22;16960;49.404;8.248;2024-02-14T00:24:36;21.20;37.50
30148;DHT22;16960;49.404;8.248;2024-02-14T00:27:03;21.20;37.50
30148;DHT22;16960;49.404;8.248;2024-02-14T00:29:30;21.20;37.60
30148;DHT22;16960;49.404;8.248;2024-02-14T00:31:59;21.20;37.60
30148;DHT22;16960;49.404;8.248;2024-02-14T00:34:26;21.10;37.70
30148;DHT22;16960;49.404;8.248;2024-02-14T00:36:53;21.20;37.70
30148;DHT22;16960;49.404;8.248;2024-02-14T00:39:20;21.20;37.80
30148;DHT22;16960;49.404;8.248;2024-02-14T00:41:48;21.10;37.80
30148;DHT22;16960;49.404;8.248;2024-02-14T00:44:18;21.10;37.80
30148;DHT22;16960;49.404;8.248;2024-02-14T00:46:45;21.10;37.80
30148;DHT22;16960;49.404;8.248;2024-02-14T00:49:12;21.10;37.90
30148;DHT22;16960;49.404;8.248;2024-02-14T00:51:39;21.10;37.90
30148;DHT22;16960;49.404;8.248;2024-02-14T00:54:06;21.10;37.90
30148;DHT22;16960;49.404;8.248;2024-02-14T00:56:33;21.10;37.90
30148;DHT22;16960;49.404;8.248;2024-02-14T00:59:02;21.10;37.90
30148;DHT22;16960;49.404;8.248;2024-02-14T01:01:29;21.10;38.00
30148;DHT22;16960;49.404;8.248;2024-02-14T01:03:56;21.10;38.00
30148;DHT22;16960;49.404;8.248;2024-02-14T01:06:23;21.10;38.00
30148;DHT22;16960;49.404;8.248;2024-02-14T01:08:50;21.10;38.10
30148;DHT22;16960;49.404;8.248;2024-02-14T01:11:17;21.10;38.10
30148;DHT22;16960;49.404;8.248;2024-02-14T01:13:44;21.00;38.00
30148;DHT22;16960;49.404;8.248;2024-02-14T01:16:12;21.00;38.00
30148;DHT22;16960;49.404;8.248;2024-02-14T01:18:40;21.10;38.10
30148;DHT22;16960;49.404;8.248;2024-02-14T01:21:07;21.10;38.10
30148;DHT22;16960;49.404;8.248;2024-02-14T01:23:34;21.00;38.00
30148;DHT22;16960;49.404;8.248;2024-02-14T01:26:01;21.00;38.10
30148;DHT22;16960;49.404;8.248;2024-02-14T01:28:28;21.00;38.10
30148;DHT22;16960;49.404;8.248;2024-02-14T01:30:55;21.00;38.10
30148;DHT22;16960;49.404;8.248;2024-02-14T01:33:24;21.00;38.10
30148;DHT22;16960;49.404;8.248;2024-02-14T01:35:51;21.00;38.10
30148;DHT22;16960;49.404;8.248;2024-02-14T01:38:17;21.00;38.20
30148;DHT22;16960;49.404;8.248;2024-02-14T01:40:44;21.00;38.10
30148;DHT22;16960;49.404;8.248;2024-02-14T01:43:12;21.00;38.20
30148;DHT22;16960;49.404;8.248;2024-02-14T01:45:40;20.90;38.20
30148;DHT22;16960;49.404;8.248;2024-02-14T01:48:07;20.90;38.20
30148;DHT22;16960;49.404;8.248;2024-02-14T01:50:37;20.90;38.10
30148;DHT22;16960;49.404;8.248;2024-02-14T01:53:06;20.90;38.20
30148;DHT22;16960;49.404;8.248;2024-02-14T01:55:34;20.90;38.10
30148;DHT22;16960;49.404;8.248;2024-02-14T01:58:01;20.90;38.10
30148;DHT22;16960;49.404;8.248;2024-02-14T02:00:30;20.90;38.10
30148;DHT22;16960;49.404;8.248;2024-02-14T02:02:58;20.90;38.10
30148;DHT22;16960;49.404;8.248;2024-02-14T02:05:25;20.90;38.10
30148;DHT22;16960;49.404;8.248;2024-02-14T02:07:53;20.90;38.10
30148;DHT22;16960;49.404;8.248;2024-02-14T02:10:20;20.90;38.10
30148;DHT22;16960;49.404;8.248;2024-02-14T02:12:48;20.90;38.10
30148;DHT22;16960;49.404;8.248;2024-02-14T02:15:16;20.90;38.10
30148;DHT22;16960;49.404;8.248;2024-02-14T02:17:43;20.90;38.10
30148;DHT22;16960;49.404;8.248;2024-02-14T02:20:11;20.90;38.10
30148;DHT22;16960;49.404;8.248;2024-02-14T02:22:45;20.90;38.10
30148;DHT22;16960;49.404;8.248;2024-02-14T02:25:12;20.90;38.10
30148;DHT22;16960;49.404;8.248;2024-02-14T02:27:39;20.80;38.00
30148;DHT22;16960;49.404;8.248;2024-02-14T02:30:07;20.80;38.10
30148;DHT22;16960;49.404;8.248;2024-02-14T02:32:36;20.80;38.10
30148;DHT22;16960;49.404;8.248;2024-02-14T02:35:03;20.90;38.10
30148;DHT22;16960;49.404;8.248;2024-02-14T02:37:31;20.80;38.10
30148;DHT22;16960;49.404;8.248;2024-02-14T02:39:59;20.80;38.10
30148;DHT22;16960;49.404;8.248;2024-02-14T02:42:26;20.80;38.00
30148;DHT22;16960;49.404;8.248;2024-02-14T02:44:54;20.80;38.00
30148;DHT22;16960;49.404;8.248;2024-02-14T02:47:21;20.80;38.00
30148;DHT22;16960;49.404;8.248;2024-02-14T02:49:48;20.80;38.00
30148;DHT22;16960;49.404;8.248;2024-02-14T02:52:15;20.80;37.90
30148;DHT22;16960;49.404;8.248;2024-02-14T02:54:42;20.80;37.90
30148;DHT22;16960;49.404;8.248;2024-02-14T02:57:11;20.80;37.90
30148;DHT22;16960;49.404;8.248;2024-02-14T02:59:38;20.80;37.90
30148;DHT22;16960;49.404;8.248;2024-02-14T03:02:08;20.70;37.90
30148;DHT22;16960;49.404;8.248;2024-02-14T03:04:37;20.70;37.90
30148;DHT22;16960;49.404;8.248;2024-02-14T03:07:04;20.70;37.90
30148;DHT22;16960;49.404;8.248;2024-02-14T03:09:34;20.70;38.00
30148;DHT22;16960;49.404;8.248;2024-02-14T03:12:01;20.70;38.50
30148;DHT22;16960;49.404;8.248;2024-02-14T03:14:30;20.70;37.90
30148;DHT22;16960;49.404;8.248;2024-02-14T03:16:59;20.70;37.90
30148;DHT22;16960;49.404;8.248;2024-02-14T03:19:27;20.70;37.90
30148;DHT22;16960;49.404;8.248;2024-02-14T03:21:54;20.70;37.90
30148;DHT22;16960;49.404;8.248;2024-02-14T03:24:21;20.70;37.90
30148;DHT22;16960;49.404;8.248;2024-02-14T03:26:48;20.70;37.90
30148;DHT22;16960;49.404;8.248;2024-02-14T03:29:17;20.70;37.90
30148;DHT22;16960;49.404;8.248;2024-02-14T03:31:46;20.70;37.90
30148;DHT22;16960;49.404;8.248;2024-02-14T03:34:11;20.60;37.90
30148;DHT22;16960;49.404;8.248;2024-02-14T03:36:38;20.60;37.90
30148;DHT22;16960;49.404;8.248;2024-02-14T03:39:06;20.70;38.00
30148;DHT22;16960;49.404;8.248;2024-02-14T03:41:33;20.70;38.10
30148;DHT22;16960;49.404;8.248;2024-02-14T03:44:00;20.60;38.00
30148;DHT22;16960;49.404;8.248;2024-02-14T03:46:29;20.60;38.00
30148;DHT22;16960;49.404;8.248;2024-02-14T03:48:57;20.60;38.00
30148;DHT22;16960;49.404;8.248;2024-02-14T03:51:24;20.50;38.00
30148;DHT22;16960;49.404;8.248;2024-02-14T03:53:51;20.60;38.00
30148;DHT22;16960;49.404;8.248;2024-02-14T03:56:18;20.50;37.90
30148;DHT22;16960;49.404;8.248;2024-02-14T03:58:45;20.60;38.00
30148;DHT22;16960;49.404;8.248;2024-02-14T04:01:12;20.50;38.00
30148;DHT22;16960;49.404;8.248;2024-02-14T04:03:39;20.50;38.00
30148;DHT22;16960;49.404;8.248;2024-02-14T04:06:08;20.60;38.00
30148;DHT22;16960;49.404;8.248;2024-02-14T04:08:35;20.50;38.00
30148;DHT22;16960;49.404;8.248;2024-02-14T04:11:02;20.50;38.00
30148;DHT22;16960;49.404;8.248;2024-02-14T04:13:29;20.50;38.00
30148;DHT22;16960;49.404;8.248;2024-02-14T04:15:56;20.50;38.10
30148;DHT22;16960;49.404;8.248;2024-02-14T04:18:23;20.50;38.10
30148;DHT22;16960;49.404;8.248;2024-02-14T04:20:50;20.50;38.10
30148;DHT22;16960;49.404;8.248;2024-02-14T04:23:18;20.50;38.10
30148;DHT22;16960;49.404;8.248;2024-02-14T04:25:45;20.50;38.10
30148;DHT22;16960;49.404;8.248;2024-02-14T04:28:13;20.50;38.10
30148;DHT22;16960;49.404;8.248;2024-02-14T04:30:39;20.50;38.20
30148;DHT22;16960;49.404;8.248;2024-02-14T04:33:07;20.50;38.20
30148;DHT22;16960;49.404;8.248;2024-02-14T04:35:35;20.50;38.20
30148;DHT22;16960;49.404;8.248;2024-02-14T04:38:01;20.50;38.20
30148;DHT22;16960;49.404;8.248;2024-02-14T04:40:30;20.50;38.30
30148;DHT22;16960;49.404;8.248;2024-02-14T04:42:57;20.50;38.30
30148;DHT22;16960;49.404;8.248;2024-02-14T04:45:24;20.50;38.30
30148;DHT22;16960;49.404;8.248;2024-02-14T04:47:51;20.50;38.40
30148;DHT22;16960;49.404;8.248;2024-02-14T04:50:18;20.50;38.40
30148;DHT22;16960;49.404;8.248;2024-02-14T04:52:45;20.50;38.40
30148;DHT22;16960;49.404;8.248;2024-02-14T04:55:12;20.50;38.50
30148;DHT22;16960;49.404;8.248;2024-02-14T04:57:40;20.50;38.60
30148;DHT22;16960;49.404;8.248;2024-02-14T05:00:08;20.50;38.60
30148;DHT22;16960;49.404;8.248;2024-02-14T05:02:36;20.50;38.60
30148;DHT22;16960;49.404;8.248;2024-02-14T05:05:04;20.50;38.60
30148;DHT22;16960;49.404;8.248;2024-02-14T05:07:31;20.50;38.60
30148;DHT22;16960;49.404;8.248;2024-02-14T05:09:59;20.50;38.60
30148;DHT22;16960;49.404;8.248;2024-02-14T05:12:26;20.50;38.70
30148;DHT22;16960;49.404;8.248;2024-02-14T05:14:55;20.50;38.60
30148;DHT22;16960;49.404;8.248;2024-02-14T05:17:22;20.50;38.60
30148;DHT22;16960;49.404;8.248;2024-02-14T05:19:49;20.50;38.60
30148;DHT22;16960;49.404;8.248;2024-02-14T05:22:16;20.50;38.60
30148;DHT22;16960;49.404;8.248;2024-02-14T05:24:43;20.50;38.60
30148;DHT22;16960;49.404;8.248;2024-02-14T05:27:11;20.50;38.60
30148;DHT22;16960;49.404;8.248;2024-02-14T05:29:38;20.50;38.60
30148;DHT22;16960;49.404;8.248;2024-02-14T05:32:07;20.50;38.60
30148;DHT22;16960;49.404;8.248;2024-02-14T05:34:35;20.50;38.50
30148;DHT22;16960;49.404;8.248;2024-02-14T05:37:01;20.50;38.50
30148;DHT22;16960;49.404;8.248;2024-02-14T05:39:28;20.50;38.60
30148;DHT22;16960;49.404;8.248;2024-02-14T05:41:55;20.50;38.50
30148;DHT22;16960;49.404;8.248;2024-02-14T05:44:22;20.50;38.50
30148;DHT22;16960;49.404;8.248;2024-02-14T05:46:49;20.50;38.40
30148;DHT22;16960;49.404;8.248;2024-02-14T05:49:17;20.50;38.40
30148;DHT22;16960;49.404;8.248;2024-02-14T05:51:44;20.50;38.40
30148;DHT22;16960;49.404;8.248;2024-02-14T05:54:11;20.50;38.40
30148;DHT22;16960;49.404;8.248;2024-02-14T05:56:38;20.50;38.40
30148;DHT22;16960;49.404;8.248;2024-02-14T05:59:05;20.50;38.40
30148;DHT22;16960;49.404;8.248;2024-02-14T06:01:32;20.50;38.30
30148;DHT22;16960;49.404;8.248;2024-02-14T06:03:59;20.50;38.30
30148;DHT22;16960;49.404;8.248;2024-02-14T06:06:27;20.50;38.40
30148;DHT22;16960;49.404;8.248;2024-02-14T06:08:54;20.50;38.40
30148;DHT22;16960;49.404;8.248;2024-02-14T06:11:23;20.50;38.50
30148;DHT22;16960;49.404;8.248;2024-02-14T06:13:50;20.50;38.60
30148;DHT22;16960;49.404;8.248;2024-02-14T06:16:17;20.50;38.60
30148;DHT22;16960;49.404;8.248;2024-02-14T06:18:44;20.60;38.70
30148;DHT22;16960;49.404;8.248;2024-02-14T06:21:11;20.60;38.70
30148;DHT22;16960;49.404;8.248;2024-02-14T06:23:39;20.60;38.70
30148;DHT22;16960;49.404;8.248;2024-02-14T06:26:07;20.60;38.60
30148;DHT22;16960;49.404;8.248;2024-02-14T06:28:34;20.70;38.70
30148;DHT22;16960;49.404;8.248;2024-02-14T06:31:01;20.70;38.60
30148;DHT22;16960;49.404;8.248;2024-02-14T06:33:27;20.80;38.60
30148;DHT22;16960;49.404;8.248;2024-02-14T06:35:55;20.80;38.60
30148;DHT22;16960;49.404;8.248;2024-02-14T06:38:21;20.80;38.60
30148;DHT22;16960;49.404;8.248;2024-02-14T06:40:50;20.80;38.60
30148;DHT22;16960;49.404;8.248;2024-02-14T06:43:17;20.90;38.60
30148;DHT22;16960;49.404;8.248;2024-02-14T06:45:43;20.90;38.60
30148;DHT22;16960;49.404;8.248;2024-02-14T06:48:10;20.90;38.50
30148;DHT22;16960;49.404;8.248;2024-02-14T06:50:37;21.00;38.50
30148;DHT22;16960;49.404;8.248;2024-02-14T06:53:04;21.00;39.10
30148;DHT22;16960;49.404;8.248;2024-02-14T06:55:31;21.00;38.40
30148;DHT22;16960;49.404;8.248;2024-02-14T06:58:00;21.10;38.50
30148;DHT22;16960;49.404;8.248;2024-02-14T07:00:27;21.10;38.40
30148;DHT22;16960;49.404;8.248;2024-02-14T07:02:54;21.10;38.40
30148;DHT22;16960;49.404;8.248;2024-02-14T07:05:21;21.10;38.50
30148;DHT22;16960;49.404;8.248;2024-02-14T07:07:48;21.20;38.40
30148;DHT22;16960;49.404;8.248;2024-02-14T07:10:15;21.20;38.40
30148;DHT22;16960;49.404;8.248;2024-02-14T07:12:42;21.20;38.40
30148;DHT22;16960;49.404;8.248;2024-02-14T07:15:11;21.30;38.40
30148;DHT22;16960;49.404;8.248;2024-02-14T07:17:38;21.30;38.30
30148;DHT22;16960;49.404;8.248;2024-02-14T07:20:06;21.40;38.20
30148;DHT22;16960;49.404;8.248;2024-02-14T07:22:34;21.50;38.20
30148;DHT22;16960;49.404;8.248;2024-02-14T07:25:02;21.50;38.10
30148;DHT22;16960;49.404;8.248;2024-02-14T07:27:30;21.50;38.00
30148;DHT22;16960;49.404;8.248;2024-02-14T07:29:57;21.60;38.00
30148;DHT22;16960;49.404;8.248;2024-02-14T07:32:26;21.60;38.00
30148;DHT22;16960;49.404;8.248;2024-02-14T07:34:53;21.70;38.10
30148;DHT22;16960;49.404;8.248;2024-02-14T07:37:20;21.70;38.10
30148;DHT22;16960;49.404;8.248;2024-02-14T07:39:47;21.80;37.90
30148;DHT22;16960;49.404;8.248;2024-02-14T07:42:14;21.80;37.80
30148;DHT22;16960;49.404;8.248;2024-02-14T07:44:41;21.90;37.80
30148;DHT22;16960;49.404;8.248;2024-02-14T07:47:08;22.00;37.70
30148;DHT22;16960;49.404;8.248;2024-02-14T07:49:36;22.00;37.60
30148;DHT22;16960;49.404;8.248;2024-02-14T07:52:03;22.00;37.60
30148;DHT22;16960;49.404;8.248;2024-02-14T07:54:31;22.00;37.50
30148;DHT22;16960;49.404;8.248;2024-02-14T07:56:58;22.10;37.50
30148;DHT22;16960;49.404;8.248;2024-02-14T07:59:24;22.10;37.40
30148;DHT22;16960;49.404;8.248;2024-02-14T08:01:52;22.10;37.40
30148;DHT22;16960;49.404;8.248;2024-02-14T08:04:19;22.20;37.30
30148;DHT22;16960;49.404;8.248;2024-02-14T08:06:48;22.20;37.20
30148;DHT22;16960;49.404;8.248;2024-02-14T08:09:15;22.20;37.20
30148;DHT22;16960;49.404;8.248;2024-02-14T08:11:42;22.30;37.20
30148;DHT22;16960;49.404;8.248;2024-02-14T08:14:09;22.30;37.20
30148;DHT22;16960;49.404;8.248;2024-02-14T08:16:37;22.30;37.10
30148;DHT22;16960;49.404;8.248;2024-02-14T08:19:03;22.30;37.70
30148;DHT22;16960;49.404;8.248;2024-02-14T08:21:30;22.40;37.10
30148;DHT22;16960;49.404;8.248;2024-02-14T08:23:59;22.40;37.00
30148;DHT22;16960;49.404;8.248;2024-02-14T08:26:26;22.40;37.00
30148;DHT22;16960;49.404;8.248;2024-02-14T08:28:53;22.40;36.90
30148;DHT22;16960;49.404;8.248;2024-02-14T08:31:20;22.40;36.90
30148;DHT22;16960;49.404;8.248;2024-02-14T08:33:47;22.40;36.90
30148;DHT22;16960;49.404;8.248;2024-02-14T08:36:14;22.40;36.90
30148;DHT22;16960;49.404;8.248;2024-02-14T08:38:42;22.40;36.90
30148;DHT22;16960;49.404;8.248;2024-02-14T08:41:10;22.40;36.80
30148;DHT22;16960;49.404;8.248;2024-02-14T08:43:39;22.40;36.90
30148;DHT22;16960;49.404;8.248;2024-02-14T08:46:09;22.40;36.80
30148;DHT22;16960;49.404;8.248;2024-02-14T08:48:37;22.40;36.80
30148;DHT22;16960;49.404;8.248;2024-02-14T08:51:07;22.50;36.90
30148;DHT22;16960;49.404;8.248;2024-02-14T08:53:35;22.40;36.80
30148;DHT22;16960;49.404;8.248;2024-02-14T08:56:02;22.50;36.90
30148;DHT22;16960;49.404;8.248;2024-02-14T08:58:31;22.50;36.90
30148;DHT22;16960;49.404;8.248;2024-02-14T09:00:58;22.50;36.80
30148;DHT22;16960;49.404;8.248;2024-02-14T09:03:25;22.50;36.90
30148;DHT22;16960;49.404;8.248;2024-02-14T09:05:52;22.50;36.90
30148;DHT22;16960;49.404;8.248;2024-02-14T09:08:19;22.60;36.80
30148;DHT22;16960;49.404;8.248;2024-02-14T09:10:47;22.60;36.80
30148;DHT22;16960;49.404;8.248;2024-02-14T09:13:14;22.60;36.80
30148;DHT22;16960;49.404;8.248;2024-02-14T09:15:43;22.60;36.80
30148;DHT22;16960;49.404;8.248;2024-02-14T09:18:10;22.60;36.70
30148;DHT22;16960;49.404;8.248;2024-02-14T09:20:37;22.60;36.70
30148;DHT22;16960;49.404;8.248;2024-02-14T09:23:04;22.70;36.80
30148;DHT22;16960;49.404;8.248;2024-02-14T09:25:31;22.70;36.80
30148;DHT22;16960;49.404;8.248;2024-02-14T09:27:58;22.70;36.70
30148;DHT22;16960;49.404;8.248;2024-02-14T09:30:25;22.70;36.70
30148;DHT22;16960;49.404;8.248;2024-02-14T09:32:53;22.80;36.70
30148;DHT22;16960;49.404;8.248;2024-02-14T09:35:20;22.80;36.70
30148;DHT22;16960;49.404;8.248;2024-02-14T09:37:47;22.80;36.70
30148;DHT22;16960;49.404;8.248;2024-02-14T09:40:15;22.80;36.60
30148;DHT22;16960;49.404;8.248;2024-02-14T09:42:44;22.80;36.60
30148;DHT22;16960;49.404;8.248;2024-02-14T09:45:15;22.80;36.60
30148;DHT22;16960;49.404;8.248;2024-02-14T09:47:42;22.80;36.60
30148;DHT22;16960;49.404;8.248;2024-02-14T09:50:12;22.80;36.60
30148;DHT22;16960;49.404;8.248;2024-02-14T09:52:39;22.80;36.60
30148;DHT22;16960;49.404;8.248;2024-02-14T09:55:08;22.90;36.60
30148;DHT22;16960;49.404;8.248;2024-02-14T09:57:37;22.90;36.60
30148;DHT22;16960;49.404;8.248;2024-02-14T10:00:09;22.90;36.60
30148;DHT22;16960;49.404;8.248;2024-02-14T10:02:36;22.90;36.60
30148;DHT22;16960;49.404;8.248;2024-02-14T10:05:04;22.90;36.60
30148;DHT22;16960;49.404;8.248;2024-02-14T10:07:40;22.90;36.60
30148;DHT22;16960;49.404;8.248;2024-02-14T10:10:07;22.90;36.50
30148;DHT22;16960;49.404;8.248;2024-02-14T10:12:35;23.00;36.50
30148;DHT22;16960;49.404;8.248;2024-02-14T10:15:02;23.00;36.50
30148;DHT22;16960;49.404;8.248;2024-02-14T10:17:32;23.00;36.60
30148;DHT22;16960;49.404;8.248;2024-02-14T10:20:00;23.00;36.50
30148;DHT22;16960;49.404;8.248;2024-02-14T10:22:33;23.00;36.50
30148;DHT22;16960;49.404;8.248;2024-02-14T10:25:02;23.00;36.50
30148;DHT22;16960;49.404;8.248;2024-02-14T10:27:30;23.00;36.60
30148;DHT22;16960;49.404;8.248;2024-02-14T10:29:59;23.00;36.50
30148;DHT22;16960;49.404;8.248;2024-02-14T10:32:26;23.10;36.60
30148;DHT22;16960;49.404;8.248;2024-02-14T10:34:54;23.00;36.50
30148;DHT22;16960;49.404;8.248;2024-02-14T10:37:21;23.00;36.50
30148;DHT22;16960;49.404;8.248;2024-02-14T10:39:49;23.10;36.50
30148;DHT22;16960;49.404;8.248;2024-02-14T10:42:19;23.00;36.40
30148;DHT22;16960;49.404;8.248;2024-02-14T10:44:46;23.10;36.50
30148;DHT22;16960;49.404;8.248;2024-02-14T10:47:19;23.10;36.50
30148;DHT22;16960;49.404;8.248;2024-02-14T10:49:48;23.00;36.50
30148;DHT22;16960;49.404;8.248;2024-02-14T10:52:17;23.00;36.50
30148;DHT22;16960;49.404;8.248;2024-02-14T10:54:50;23.10;36.60
30148;DHT22;16960;49.404;8.248;2024-02-14T10:57:21;23.00;36.50
30148;DHT22;16960;49.404;8.248;2024-02-14T10:59:51;23.00;36.60
30148;DHT22;16960;49.404;8.248;2024-02-14T11:02:20;23.00;36.50
30148;DHT22;16960;49.404;8.248;2024-02-14T11:04:48;23.00;36.60
30148;DHT22;16960;49.404;8.248;2024-02-14T11:07:19;23.00;36.60
30148;DHT22;16960;49.404;8.248;2024-02-14T11:09:48;23.00;36.60
30148;DHT22;16960;49.404;8.248;2024-02-14T11:12:32;23.00;36.60
30148;DHT22;16960;49.404;8.248;2024-02-14T11:15:00;23.00;36.70
30148;DHT22;16960;49.404;8.248;2024-02-14T11:17:31;23.00;37.20
30148;DHT22;16960;49.404;8.248;2024-02-14T11:19:58;23.00;36.70
30148;DHT22;16960;49.404;8.248;2024-02-14T11:22:25;23.00;36.70
30148;DHT22;16960;49.404;8.248;2024-02-14T11:24:52;23.00;36.70
30148;DHT22;16960;49.404;8.248;2024-02-14T11:27:20;23.00;36.60
30148;DHT22;16960;49.404;8.248;2024-02-14T11:29:59;23.00;36.70
30148;DHT22;16960;49.404;8.248;2024-02-14T11:32:27;23.00;36.60
30148;DHT22;16960;49.404;8.248;2024-02-14T11:34:55;23.00;36.60
30148;DHT22;16960;49.404;8.248;2024-02-14T11:37:27;23.00;36.60
30148;DHT22;16960;49.404;8.248;2024-02-14T11:39:54;23.00;36.60
30148;DHT22;16960;49.404;8.248;2024-02-14T11:42:23;23.00;36.60
30148;DHT22;16960;49.404;8.248;2024-02-14T11:44:50;23.00;36.60
30148;DHT22;16960;49.404;8.248;2024-02-14T11:47:19;23.10;36.60
30148;DHT22;16960;49.404;8.248;2024-02-14T11:49:46;23.10;36.60
30148;DHT22;16960;49.404;8.248;2024-02-14T11:52:13;23.10;36.60
30148;DHT22;16960;49.404;8.248;2024-02-14T11:54:46;23.10;36.60
30148;DHT22;16960;49.404;8.248;2024-02-14T11:57:17;23.10;36.60
30148;DHT22;16960;49.404;8.248;2024-02-14T11:59:44;23.10;36.60
30148;DHT22;16960;49.404;8.248;2024-02-14T12:02:12;23.10;36.50
30148;DHT22;16960;49.404;8.248;2024-02-14T12:04:41;23.10;36.50
30148;DHT22;16960;49.404;8.248;2024-02-14T12:07:09;23.10;36.50
30148;DHT22;16960;49.404;8.248;2024-02-14T12:09:36;23.20;36.50
30148;DHT22;16960;49.404;8.248;2024-02-14T12:12:04;23.20;36.50
30148;DHT22;16960;49.404;8.248;2024-02-14T12:14:32;23.20;36.50
30148;DHT22;16960;49.404;8.248;2024-02-14T12:17:00;23.20;36.50
30148;DHT22;16960;49.404;8.248;2024-02-14T12:19:28;23.20;36.50
30148;DHT22;16960;49.404;8.248;2024-02-14T12:21:57;23.20;36.50
30148;DHT22;16960;49.404;8.248;2024-02-14T12:24:27;23.30;36.60
30148;DHT22;16960;49.404;8.248;2024-02-14T12:26:55;23.30;36.50
30148;DHT22;16960;49.404;8.248;2024-02-14T12:29:23;23.30;36.60
30148;DHT22;16960;49.404;8.248;2024-02-14T12:31:50;23.30;36.50
30148;DHT22;16960;49.404;8.248;2024-02-14T12:34:17;23.30;36.60
30148;DHT22;16960;49.404;8.248;2024-02-14T12:36:45;23.30;36.50
30148;DHT22;16960;49.404;8.248;2024-02-14T12:39:14;23.30;36.60
30148;DHT22;16960;49.404;8.248;2024-02-14T12:41:40;23.30;36.60
30148;DHT22;16960;49.404;8.248;2024-02-14T12:44:07;23.30;36.60
30148;DHT22;16960;49.404;8.248;2024-02-14T12:46:34;23.30;36.60
30148;DHT22;16960;49.404;8.248;2024-02-14T12:49:03;23.30;36.60
30148;DHT22;16960;49.404;8.248;2024-02-14T12:51:30;23.30;36.60
30148;DHT22;16960;49.404;8.248;2024-02-14T12:53:58;23.30;36.70
30148;DHT22;16960;49.404;8.248;2024-02-14T12:56:26;23.30;36.60
30148;DHT22;16960;49.404;8.248;2024-02-14T12:58:53;23.30;36.60
30148;DHT22;16960;49.404;8.248;2024-02-14T13:01:20;23.30;36.60
30148;DHT22;16960;49.404;8.248;2024-02-14T13:03:47;23.30;36.60
30148;DHT22;16960;49.404;8.248;2024-02-14T13:06:14;23.30;36.70
30148;DHT22;16960;49.404;8.248;2024-02-14T13:08:41;23.30;36.70
30148;DHT22;16960;49.404;8.248;2024-02-14T13:11:08;23.30;36.70
30148;DHT22;16960;49.404;8.248;2024-02-14T13:13:37;23.30;36.70
30148;DHT22;16960;49.404;8.248;2024-02-14T13:16:07;23.30;36.70
30148;DHT22;16960;49.404;8.248;2024-02-14T13:18:34;23.30;36.70
30148;DHT22;16960;49.404;8.248;2024-02-14T13:21:02;23.30;36.70
30148;DHT22;16960;49.404;8.248;2024-02-14T13:23:29;23.30;36.70
30148;DHT22;16960;49.404;8.248;2024-02-14T13:25:56;23.30;36.80
30148;DHT22;16960;49.404;8.248;2024-02-14T13:28:24;23.30;36.70
30148;DHT22;16960;49.404;8.248;2024-02-14T13:30:52;23.30;36.80
30148;DHT22;16960;49.404;8.248;2024-02-14T13:33:19;23.20;36.70
30148;DHT22;16960;49.404;8.248;2024-02-14T13:35:46;23.20;36.80
30148;DHT22;16960;49.404;8.248;2024-02-14T13:38:13;23.20;37.30
30148;DHT22;16960;49.404;8.248;2024-02-14T13:40:40;23.20;36.80
30148;DHT22;16960;49.404;8.248;2024-02-14T13:43:07;23.20;36.80
30148;DHT22;16960;49.404;8.248;2024-02-14T13:45:40;23.20;36.80
30148;DHT22;16960;49.404;8.248;2024-02-14T13:48:10;23.30;36.90
30148;DHT22;16960;49.404;8.248;2024-02-14T13:50:37;23.20;36.80
30148;DHT22;16960;49.404;8.248;2024-02-14T13:53:05;23.20;36.80
30148;DHT22;16960;49.404;8.248;2024-02-14T13:55:33;23.30;36.90
30148;DHT22;16960;49.404;8.248;2024-02-14T13:58:00;23.30;36.90
30148;DHT22;16960;49.404;8.248;2024-02-14T14:00:27;23.30;36.90
30148;DHT22;16960;49.404;8.248;2024-02-14T14:02:54;23.30;36.90
30148;DHT22;16960;49.404;8.248;2024-02-14T14:05:23;23.30;36.90
30148;DHT22;16960;49.404;8.248;2024-02-14T14:07:50;23.30;36.90
30148;DHT22;16960;49.404;8.248;2024-02-14T14:10:17;23.40;36.80
30148;DHT22;16960;49.404;8.248;2024-02-14T14:12:44;23.40;36.80
30148;DHT22;16960;49.404;8.248;2024-02-14T14:15:11;23.40;36.80
30148;DHT22;16960;49.404;8.248;2024-02-14T14:17:38;23.40;36.80
30148;DHT22;16960;49.404;8.248;2024-02-14T14:20:06;23.40;36.70
30148;DHT22;16960;49.404;8.248;2024-02-14T14:22:35;23.50;36.80
30148;DHT22;16960;49.404;8.248;2024-02-14T14:25:04;23.40;36.70
30148;DHT22;16960;49.404;8.248;2024-02-14T14:27:31;23.50;36.70
30148;DHT22;16960;49.404;8.248;2024-02-14T14:29:58;23.50;36.70
30148;DHT22;16960;49.404;8.248;2024-02-14T14:32:25;23.50;36.70
30148;DHT22;16960;49.404;8.248;2024-02-14T14:34:52;23.50;36.70
30148;DHT22;16960;49.404;8.248;2024-02-14T14:37:19;23.40;36.60
30148;DHT22;16960;49.404;8.248;2024-02-14T14:39:48;23.50;36.80
30148;DHT22;16960;49.404;8.248;2024-02-14T14:42:15;23.50;36.70
30148;DHT22;16960;49.404;8.248;2024-02-14T14:44:43;23.40;36.70
30148;DHT22;16960;49.404;8.248;2024-02-14T14:47:10;23.50;36.70
30148;DHT22;16960;49.404;8.248;2024-02-14T14:49:37;23.50;36.70
30148;DHT22;16960;49.404;8.248;2024-02-14T14:52:05;23.40;36.70
30148;DHT22;16960;49.404;8.248;2024-02-14T14:54:31;23.40;36.80
30148;DHT22;16960;49.404;8.248;2024-02-14T14:57:00;23.40;36.80
30148;DHT22;16960;49.404;8.248;2024-02-14T14:59:29;23.40;36.80
30148;DHT22;16960;49.404;8.248;2024-02-14T15:01:56;23.40;36.80
30148;DHT22;16960;49.404;8.248;2024-02-14T15:04:23;23.40;36.80
30148;DHT22;16960;49.404;8.248;2024-02-14T15:06:50;23.40;36.90
30148;DHT22;16960;49.404;8.248;2024-02-14T15:09:18;23.30;36.90
30148;DHT22;16960;49.404;8.248;2024-02-14T15:11:45;23.40;36.90
30148;DHT22;16960;49.404;8.248;2024-02-14T15:14:14;23.40;36.90
30148;DHT22;16960;49.404;8.248;2024-02-14T15:16:41;23.40;36.90
30148;DHT22;16960;49.404;8.248;2024-02-14T15:19:08;23.40;36.90
30148;DHT22;16960;49.404;8.248;2024-02-14T15:21:35;23.40;36.90
30148;DHT22;16960;49.404;8.248;2024-02-14T15:24:01;23.30;37.00
30148;DHT22;16960;49.404;8.248;2024-02-14T15:26:29;23.30;37.00
30148;DHT22;16960;49.404;8.248;2024-02-14T15:29:04;23.30;37.00
30148;DHT22;16960;49.404;8.248;2024-02-14T15:31:46;23.30;37.00